Back to Top

Language: 

My Weather Underground Personal Weather Station Historical Data with Graphs...

Delerius Weather Station Historical Data
Daily Summary for December 29, 2017 Units:  Metric    English   Both
« Previous Day
Next Day »
Daily Weekly Monthly Yearly Custom
  High: Low: Average:
Temperature: 5.4 °C -1.3 °C 2.1 °C
Dew Point: 3.4 °C -2.6 °C 0.6 °C
Humidity: 97 % 80 % 90 %
Wind Speed: 35.4 km/h 0 km/h 10.6 km/h
Wind Gust: 53.1 km/h - -
Wind:- - SW
Pressure: 1002.6 hPa 987.7 hPa -
Precipitation: 3.3 mm    
Historical Graphs
 
 
Tabular Data for December 29, 2017
Time Temperature Dew Point Pressure Wind Wind Speed Wind Gust Humidity Rainfall Rate (Hourly) solar Conditions
00:00 0 °C -1.6 °C 1002.3 hPa West 1.6 km/h 6.4 km/h 89 % 0 mm 0 W/m2
00:05 0 °C -1.4 °C 1002.6 hPa West 4.8 km/h 8 km/h 90 % 0 mm 0 W/m2
00:10 0 °C -1.4 °C 1002.3 hPa WNW 3.2 km/h 8 km/h 90 % 0 mm 0 W/m2
00:12 0 °C -1.4 °C 1002.3 hPa WNW 1.6 km/h 6.4 km/h 90 % 0 mm 0 W/m2
00:15 0 °C -1.4 °C 1002.3 hPa WNW 1.6 km/h 4.8 km/h 90 % 0 mm 0 W/m2
00:19 0 °C -1.4 °C 1002.3 hPa Calm   4.8 km/h 90 % 0 mm 0 W/m2
00:21 0 °C -1.4 °C 1002.3 hPa Calm   3.2 km/h 90 % 0 mm 0 W/m2
00:26 -0.1 °C -1.7 °C 1002.3 hPa South 4.8 km/h 9.7 km/h 89 % 0 mm 0 W/m2
00:31 -0.2 °C -1.8 °C 1001.9 hPa WSW 1.6 km/h 6.4 km/h 89 % 0 mm 0 W/m2
00:34 -0.2 °C -1.8 °C 1001.9 hPa Calm   3.2 km/h 89 % 0 mm 0 W/m2
00:39 -0.3 °C -1.9 °C 1001.6 hPa Calm   1.6 km/h 89 % 0 mm 0 W/m2
00:40 -0.3 °C -1.9 °C 1001.6 hPa Calm   1.6 km/h 89 % 0 mm 0 W/m2
00:45 -0.4 °C -2 °C 1001.6 hPa Calm     89 % 0 mm 0 W/m2
00:50 -0.4 °C -2 °C 1001.2 hPa Calm     89 % 0 mm 0 W/m2
00:51 -0.5 °C -2.1 °C 1001.2 hPa Calm     89 % 0 mm 0 W/m2
00:54 -0.6 °C -2.2 °C 1001.2 hPa Calm   1.6 km/h 89 % 0 mm 0 W/m2
00:56 -0.6 °C -2.2 °C 1001.2 hPa WSW 1.6 km/h 4.8 km/h 89 % 0 mm 0 W/m2
01:01 -0.7 °C -2.3 °C 1001.2 hPa Calm     89 % 0 mm 0 W/m2
01:03 -0.8 °C -2.4 °C 1001.2 hPa Calm     89 % 0 mm 0 W/m2
01:08 -0.8 °C -2.4 °C 1001.6 hPa Calm     89 % 0 mm 0 W/m2
01:09 -0.9 °C -2.5 °C 1001.6 hPa Calm     89 % 0 mm 0 W/m2
01:14 -0.9 °C -2.3 °C 1001.2 hPa Calm     90 % 0 mm 0 W/m2
01:20 -1.1 °C -2.6 °C 1001.6 hPa WSW 3.2 km/h 8 km/h 90 % 0 mm 0 W/m2
01:21 -1.1 °C -2.6 °C 1001.9 hPa WSW 3.2 km/h 8 km/h 90 % 0 mm 0 W/m2
01:26 -0.9 °C -2.2 °C 1001.9 hPa WSW 6.4 km/h 9.7 km/h 91 % 0 mm 0 W/m2
01:27 -0.9 °C -2.2 °C 1001.9 hPa WSW 4.8 km/h 9.7 km/h 91 % 0 mm 0 W/m2
01:32 -0.9 °C -2.3 °C 1001.9 hPa West 6.4 km/h 9.7 km/h 90 % 0 mm 0 W/m2
01:33 -0.9 °C -2.3 °C 1001.9 hPa West 4.8 km/h 8 km/h 90 % 0 mm 0 W/m2
01:38 -0.9 °C -2.3 °C 1001.6 hPa West 4.8 km/h 9.7 km/h 90 % 0 mm 0 W/m2
01:44 -0.9 °C -2.3 °C 1001.6 hPa WNW 4.8 km/h 8 km/h 90 % 0 mm 0 W/m2
01:45 -0.9 °C -2.3 °C 1001.6 hPa WNW 3.2 km/h 6.4 km/h 90 % 0 mm 0 W/m2
01:50 -1 °C -2.4 °C 1001.2 hPa WNW 1.6 km/h 3.2 km/h 90 % 0 mm 0 W/m2
01:52 -1 °C -2.4 °C 1001.2 hPa WNW 1.6 km/h 6.4 km/h 90 % 0 mm 0 W/m2
01:57 -1 °C -2.4 °C 1001.2 hPa Calm   3.2 km/h 90 % 0 mm 0 W/m2
01:58 -1 °C -2.4 °C 1001.2 hPa Calm   3.2 km/h 90 % 0 mm 0 W/m2
02:03 -1.1 °C -2.6 °C 1000.9 hPa Calm     90 % 0 mm 0 W/m2
02:04 -1.1 °C -2.6 °C 1000.9 hPa Calm     90 % 0 mm 0 W/m2
02:08 -1.1 °C -2.6 °C 1000.9 hPa Calm     90 % 0 mm 0 W/m2
02:13 -1.1 °C -2.6 °C 1000.9 hPa Calm   3.2 km/h 90 % 0 mm 0 W/m2
02:18 -1.1 °C -2.6 °C 1000.9 hPa Calm   3.2 km/h 90 % 0 mm 0 W/m2
02:23 -1.1 °C -2.6 °C 1000.9 hPa WSW 1.6 km/h 6.4 km/h 90 % 0 mm 0 W/m2
02:26 -1.1 °C -2.6 °C 1000.9 hPa WSW 1.6 km/h 8 km/h 90 % 0 mm 0 W/m2
02:31 -1.1 °C -2.4 °C 1000.9 hPa WSW 3.2 km/h 6.4 km/h 91 % 0 mm 0 W/m2
02:36 -1.1 °C -2.6 °C 1000.9 hPa WSW 1.6 km/h 6.4 km/h 90 % 0 mm 0 W/m2
02:42 -1.1 °C -2.6 °C 1000.6 hPa SW 3.2 km/h 8 km/h 90 % 0 mm 0 W/m2
02:43 -1.1 °C -2.6 °C 1000.6 hPa SSW 3.2 km/h 8 km/h 90 % 0 mm 0 W/m2
02:48 -1.2 °C -2.6 °C 1000.2 hPa South 1.6 km/h 6.4 km/h 90 % 0 mm 0 W/m2
02:50 -1.2 °C -2.6 °C 1000.2 hPa South 3.2 km/h 8 km/h 90 % 0 mm 0 W/m2
02:54 -1.2 °C -2.6 °C 999.9 hPa South 1.6 km/h 3.2 km/h 90 % 0 mm 0 W/m2
02:57 -1.2 °C -2.6 °C 999.9 hPa South 3.2 km/h 6.4 km/h 90 % 0 mm 0 W/m2
03:02 -1.2 °C -2.5 °C 999.9 hPa Calm     91 % 0 mm 0 W/m2
03:03 -1.2 °C -2.5 °C 999.9 hPa Calm     91 % 0 mm 0 W/m2
03:07 -1.2 °C -2.5 °C 999.9 hPa Calm     91 % 0 mm 0 W/m2
03:11 -1.2 °C -2.5 °C 999.9 hPa Calm     91 % 0 mm 0 W/m2
03:17 -1.3 °C -2.6 °C 999.5 hPa Calm     91 % 0 mm 0 W/m2
03:22 -1.2 °C -2.5 °C 999.5 hPa SSW 1.6 km/h 6.4 km/h 91 % 0 mm 0 W/m2
03:27 -1.2 °C -2.5 °C 999.5 hPa Calm   4.8 km/h 91 % 0 mm 0 W/m2
03:29 -1.2 °C -2.5 °C 999.5 hPa SSW 1.6 km/h 6.4 km/h 91 % 0 mm 0 W/m2
03:30 -1.2 °C -2.5 °C 999.5 hPa SSW 1.6 km/h 6.4 km/h 91 % 0 mm 0 W/m2
03:35 -1.2 °C -2.5 °C 999.2 hPa South 3.2 km/h 9.7 km/h 91 % 0 mm 0 W/m2
03:37 -1.1 °C -2.4 °C 999.2 hPa SSE 4.8 km/h 11.3 km/h 91 % 0 mm 0 W/m2
03:42 -1 °C -2.1 °C 999.2 hPa SSE 8 km/h 11.3 km/h 92 % 0 mm 0 W/m2
03:47 -0.9 °C -2.1 °C 998.9 hPa SSE 3.2 km/h 9.7 km/h 92 % 0 mm 0 W/m2
03:48 -0.9 °C -2.1 °C 998.9 hPa SSE 3.2 km/h 9.7 km/h 92 % 0 mm 0 W/m2
03:53 -0.8 °C -1.9 °C 998.9 hPa SSE 4.8 km/h 8 km/h 92 % 0 mm 0 W/m2
03:55 -0.8 °C -1.9 °C 998.9 hPa SSE 3.2 km/h 8 km/h 92 % 0 mm 0 W/m2
04:00 -0.8 °C -1.9 °C 998.5 hPa SE 4.8 km/h 11.3 km/h 92 % 0 mm 0 W/m2
04:02 -0.8 °C -1.9 °C 998.5 hPa SE 4.8 km/h 9.7 km/h 92 % 0 mm 0 W/m2
04:07 -0.7 °C -1.8 °C 998.2 hPa ESE 1.6 km/h 9.7 km/h 92 % 0 mm 0 W/m2
04:11 -0.7 °C -1.8 °C 997.9 hPa ESE 3.2 km/h 9.7 km/h 92 % 0 mm 0 W/m2
04:16 -0.6 °C -1.7 °C 997.9 hPa SE 1.6 km/h 9.7 km/h 92 % 0 mm 0 W/m2
04:17 -0.7 °C -1.8 °C 997.9 hPa SE 3.2 km/h 9.7 km/h 92 % 0 mm 0 W/m2
04:22 -0.6 °C -1.7 °C 997.5 hPa SE 4.8 km/h 8 km/h 92 % 0 mm 0 W/m2
04:25 -0.6 °C -1.7 °C 997.5 hPa SSE 4.8 km/h 9.7 km/h 92 % 0 mm 0 W/m2
04:27 -0.6 °C -1.7 °C 997.5 hPa SSE 4.8 km/h 9.7 km/h 92 % 0 mm 0 W/m2
04:32 -0.6 °C -1.7 °C 997.5 hPa SSE 8 km/h 12.9 km/h 92 % 0 mm 0 W/m2
04:33 -0.6 °C -1.7 °C 997.5 hPa SE 6.4 km/h 12.9 km/h 92 % 0 mm 0 W/m2
04:37 -0.6 °C -1.7 °C 997.5 hPa SSE 6.4 km/h 11.3 km/h 92 % 0 mm 0 W/m2
04:38 -0.6 °C -1.7 °C 997.2 hPa South 6.4 km/h 11.3 km/h 92 % 0 mm 0 W/m2
04:43 -0.5 °C -1.7 °C 997.2 hPa SSE 1.6 km/h 8 km/h 92 % 0 mm 0 W/m2
04:45 -0.5 °C -1.7 °C 997.2 hPa South 3.2 km/h 11.3 km/h 92 % 0 mm 0 W/m2
04:49 -0.4 °C -1.6 °C 997.2 hPa SSE 6.4 km/h 11.3 km/h 92 % 0 mm 0 W/m2
04:50 -0.4 °C -1.6 °C 997.2 hPa SSE 6.4 km/h 11.3 km/h 92 % 0 mm 0 W/m2
04:51 -0.4 °C -1.6 °C 996.8 hPa SE 8 km/h 12.9 km/h 92 % 0 mm 0 W/m2
04:56 -0.4 °C -1.6 °C 996.8 hPa SSE 4.8 km/h 11.3 km/h 92 % 0 mm 0 W/m2
04:58 -0.4 °C -1.6 °C 996.8 hPa SSE 8 km/h 11.3 km/h 92 % 0 mm 0 W/m2
04:59 -0.4 °C -1.6 °C 996.8 hPa SSE 8 km/h 11.3 km/h 92 % 0 mm 0 W/m2
05:04 -0.4 °C -1.6 °C 996.5 hPa SE 8 km/h 11.3 km/h 92 % 0 mm 0 W/m2
05:09 -0.4 °C -1.6 °C 996.5 hPa SSE 6.4 km/h 11.3 km/h 92 % 0 mm 0 W/m2
05:14 -0.4 °C -1.6 °C 996.2 hPa SE 8 km/h 12.9 km/h 92 % 0 mm 0 W/m2
05:15 -0.4 °C -1.6 °C 996.2 hPa SE 8 km/h 12.9 km/h 92 % 0 mm 0 W/m2
05:16 -0.4 °C -1.6 °C 996.2 hPa SE 9.7 km/h 14.5 km/h 92 % 0 mm 0 W/m2
05:21 -0.3 °C -1.4 °C 996.2 hPa SSE 9.7 km/h 16.1 km/h 92 % 0 mm 0 W/m2
05:23 -0.3 °C -1.4 °C 996.2 hPa SSE 9.7 km/h 14.5 km/h 92 % 0 mm 0 W/m2
05:26 -0.2 °C -1.3 °C 995.8 hPa SE 8 km/h 12.9 km/h 92 % 0 mm 0 W/m2
05:29 -0.2 °C -1.3 °C 995.8 hPa SE 9.7 km/h 14.5 km/h 92 % 0 mm 0 W/m2
05:34 -0.1 °C -1.2 °C 995.5 hPa SSE 12.9 km/h 19.3 km/h 92 % 0 mm 0 W/m2
05:35 0 °C -1 °C 995.5 hPa SSE 11.3 km/h 16.1 km/h 93 % 0 mm 0 W/m2
05:40 0.1 °C -1.1 °C 995.5 hPa SE 11.3 km/h 14.5 km/h 92 % 0 mm 0 W/m2
05:45 0.2 °C -0.9 °C 995.1 hPa SE 11.3 km/h 16.1 km/h 92 % 0 mm 0 W/m2
05:49 0.2 °C -0.9 °C 995.1 hPa SE 9.7 km/h 16.1 km/h 92 % 0 mm 0 W/m2
05:54 0.2 °C -0.9 °C 995.1 hPa SSE 9.7 km/h 14.5 km/h 92 % 0 mm 0 W/m2
05:58 0.2 °C -0.9 °C 994.8 hPa SE 8 km/h 16.1 km/h 92 % 0 mm 0 W/m2
06:02 0.2 °C -0.9 °C 994.8 hPa SSE 9.7 km/h 16.1 km/h 92 % 0 mm 0 W/m2
06:03 0.2 °C -0.9 °C 994.8 hPa SE 12.9 km/h 19.3 km/h 92 % 0 mm 0 W/m2
06:08 0.2 °C -0.9 °C 994.5 hPa SE 14.5 km/h 20.9 km/h 92 % 0 mm 0 W/m2
06:13 0.2 °C -0.9 °C 994.1 hPa SE 9.7 km/h 16.1 km/h 92 % 0 mm 0 W/m2
06:14 0.2 °C -0.9 °C 994.1 hPa SE 9.7 km/h 14.5 km/h 92 % 0 mm 0 W/m2
06:17 0.2 °C -0.9 °C 994.1 hPa ESE 11.3 km/h 16.1 km/h 92 % 0 mm 0 W/m2
06:19 0.1 °C -1.1 °C 993.8 hPa SE 11.3 km/h 16.1 km/h 92 % 0 mm 0 W/m2
06:25 0.1 °C -0.9 °C 993.8 hPa SE 14.5 km/h 22.5 km/h 93 % 0 mm 0 W/m2
06:30 0.1 °C -0.9 °C 993.5 hPa SE 9.7 km/h 16.1 km/h 93 % 0 mm 0 W/m2
06:34 0 °C -1 °C 993.5 hPa SE 9.7 km/h 16.1 km/h 93 % 0 mm 0 W/m2
06:36 0 °C -1 °C 993.1 hPa SE 9.7 km/h 12.9 km/h 93 % 0 mm 0 W/m2
06:41 0.1 °C -0.9 °C 993.1 hPa SE 9.7 km/h 14.5 km/h 93 % 0 mm 0 W/m2
06:42 0.1 °C -0.9 °C 993.1 hPa SE 8 km/h 14.5 km/h 93 % 0 mm 0 W/m2
06:44 0.1 °C -0.8 °C 993.1 hPa SE 9.7 km/h 16.1 km/h 94 % 0 mm 0 W/m2
06:49 0.1 °C -0.8 °C 992.8 hPa SE 8 km/h 11.3 km/h 94 % 0 mm 0 W/m2
06:51 0.2 °C -0.7 °C 992.8 hPa SE 9.7 km/h 17.7 km/h 94 % 0 mm 0 W/m2
06:53 0.2 °C -0.7 °C 992.8 hPa SE 8 km/h 17.7 km/h 94 % 0 mm 0 W/m2
06:58 0.2 °C -0.7 °C 992.4 hPa SE 9.7 km/h 14.5 km/h 94 % 0 mm 0 W/m2
06:59 0.2 °C -0.7 °C 992.4 hPa SE 9.7 km/h 12.9 km/h 94 % 0 mm 0 W/m2
07:03 0.3 °C -0.6 °C 992.4 hPa SE 8 km/h 12.9 km/h 94 % 0 mm 0 W/m2
07:04 0.3 °C -0.6 °C 992.4 hPa SE 8 km/h 12.9 km/h 94 % 0 mm 0 W/m2
07:09 0.3 °C -0.6 °C 992.1 hPa SE 8 km/h 12.9 km/h 94 % 0 mm 0 W/m2
07:10 0.3 °C -0.6 °C 992.1 hPa SE 8 km/h 11.3 km/h 94 % 0 mm 0 W/m2
07:15 0.3 °C -0.6 °C 992.1 hPa SE 8 km/h 12.9 km/h 94 % 0 mm 0 W/m2
07:17 0.3 °C -0.6 °C 991.8 hPa SE 8 km/h 14.5 km/h 94 % 0 mm 0 W/m2
07:21 0.4 °C -0.3 °C 991.8 hPa SE 6.4 km/h 9.7 km/h 95 % 0 mm 0 W/m2
07:26 0.4 °C -0.3 °C 991.4 hPa SE 8 km/h 12.9 km/h 95 % 0 mm 0 W/m2
07:31 0.5 °C -0.2 °C 991.4 hPa SE 8 km/h 12.9 km/h 95 % 0 mm 0 W/m2
07:34 0.6 °C -0.1 °C 991.1 hPa SE 11.3 km/h 17.7 km/h 95 % 0 mm 0 W/m2
07:39 0.7 °C 0 °C 991.1 hPa SE 12.9 km/h 20.9 km/h 95 % 0 mm 0 W/m2
07:40 0.7 °C 0 °C 991.1 hPa SE 12.9 km/h 20.9 km/h 95 % 0 mm 0 W/m2
07:41 0.7 °C 0 °C 991.1 hPa SE 12.9 km/h 19.3 km/h 95 % 0 mm 0 W/m2
07:45 0.7 °C 0 °C 990.7 hPa SE 11.3 km/h 16.1 km/h 95 % 0 mm 0 W/m2
07:50 0.7 °C 0 °C 990.7 hPa SE 11.3 km/h 17.7 km/h 95 % 0 mm 0 W/m2
07:51 0.7 °C 0 °C 990.4 hPa SE 9.7 km/h 16.1 km/h 95 % 0 mm 0 W/m2
07:55 0.7 °C 0 °C 990.4 hPa SE 9.7 km/h 16.1 km/h 95 % 0 mm 0 W/m2
08:00 0.7 °C 0 °C 990.4 hPa SE 11.3 km/h 17.7 km/h 95 % 0 mm 0 W/m2
08:05 0.7 °C 0 °C 990.1 hPa SE 11.3 km/h 16.1 km/h 95 % 0 mm 0 W/m2
08:06 0.7 °C 0 °C 990.1 hPa SE 12.9 km/h 16.1 km/h 95 % 0 mm 0 W/m2
08:09 0.7 °C 0 °C 990.1 hPa SE 11.3 km/h 14.5 km/h 95 % 0 mm 0 W/m2
08:12 0.7 °C 0 °C 990.1 hPa SE 9.7 km/h 16.1 km/h 95 % 0 mm 0 W/m2
08:17 0.7 °C 0 °C 989.7 hPa SE 11.3 km/h 16.1 km/h 95 % 0 mm 0 W/m2
08:23 0.8 °C 0.1 °C 989.7 hPa SE 8 km/h 14.5 km/h 95 % 0 mm 0 W/m2
08:28 0.8 °C 0.1 °C 989.4 hPa SE 8 km/h 12.9 km/h 95 % 0 mm 0 W/m2
08:29 0.8 °C 0.1 °C 989.4 hPa SE 8 km/h 11.3 km/h 95 % 0 mm 0 W/m2
08:34 0.8 °C 0.1 °C 989.4 hPa SE 8 km/h 12.9 km/h 95 % 0 mm 0 W/m2
08:36 0.8 °C 0.1 °C 989.4 hPa SE 8 km/h 12.9 km/h 95 % 0 mm 0 W/m2
08:41 0.8 °C 0.1 °C 989.1 hPa SE 6.4 km/h 12.9 km/h 95 % 0 mm 0 W/m2
08:43 0.8 °C 0.1 °C 989.1 hPa SE 6.4 km/h 9.7 km/h 95 % 0 mm 0 W/m2
08:45 0.8 °C 0.1 °C 989.1 hPa SE 6.4 km/h 9.7 km/h 95 % 0 mm 0 W/m2
08:49 0.8 °C 0.1 °C 989.1 hPa SE 4.8 km/h 8 km/h 95 % 0 mm 0 W/m2
08:52 0.8 °C 0.1 °C 989.1 hPa SE 3.2 km/h 6.4 km/h 95 % 0 mm 0 W/m2
08:54 0.7 °C 0 °C 988.7 hPa SE 1.6 km/h 3.2 km/h 95 % 0 mm 0 W/m2
08:58 0.7 °C 0 °C 988.7 hPa SE 1.6 km/h 4.8 km/h 95 % 0 mm 0 W/m2
09:02 0.7 °C 0 °C 988.7 hPa ESE 1.6 km/h 6.4 km/h 95 % 0 mm 0 W/m2
09:07 0.7 °C 0 °C 988.7 hPa ESE 3.2 km/h 6.4 km/h 95 % 0 mm 0 W/m2
09:12 0.7 °C 0 °C 988.7 hPa ESE 3.2 km/h 8 km/h 95 % 0 mm 0 W/m2
09:16 0.7 °C 0 °C 988.7 hPa SE 6.4 km/h 9.7 km/h 95 % 0 mm 0 W/m2
09:19 0.7 °C 0 °C 988.4 hPa SE 4.8 km/h 9.7 km/h 95 % 0 mm 0 W/m2
09:24 0.7 °C 0 °C 988.4 hPa ESE 3.2 km/h 8 km/h 95 % 0 mm 5 W/m2
09:25 0.7 °C 0 °C 988.4 hPa ESE 3.2 km/h 6.4 km/h 95 % 0 mm 5 W/m2
09:29 0.7 °C 0 °C 988.4 hPa ESE 1.6 km/h 3.2 km/h 95 % 0 mm 5 W/m2
09:34 0.6 °C 0.1 °C 988.4 hPa Calm   3.2 km/h 96 % 0 mm 5 W/m2
09:35 0.7 °C 0.1 °C 988.4 hPa ESE 1.6 km/h 3.2 km/h 96 % 0 mm 5 W/m2
09:39 0.7 °C 0.1 °C 988.4 hPa ESE 1.6 km/h 6.4 km/h 96 % 0 mm 5 W/m2
09:40 0.7 °C 0.1 °C 988.4 hPa ESE 1.6 km/h 6.4 km/h 96 % 0 mm 7 W/m2
09:45 0.7 °C 0.1 °C 988.4 hPa Calm   1.6 km/h 96 % 0 mm 5 W/m2
09:46 0.7 °C 0.1 °C 988.4 hPa Calm   1.6 km/h 96 % 0 mm 5 W/m2
09:51 0.7 °C 0.1 °C 988.4 hPa Calm     96 % 0 mm 5 W/m2
09:52 0.7 °C 0.1 °C 988.4 hPa Calm     96 % 0 mm 5 W/m2
09:57 0.7 °C 0.1 °C 988.4 hPa Calm     96 % 0 mm 7 W/m2
09:58 0.7 °C 0.1 °C 988.4 hPa Calm     96 % 0 mm 7 W/m2
09:59 0.7 °C 0.1 °C 988.4 hPa Calm     96 % 0 mm 7 W/m2
10:04 0.7 °C 0.1 °C 988.4 hPa Calm     96 % 0 mm 5 W/m2
10:08 0.7 °C 0.1 °C 988.4 hPa Calm     96 % 0 mm 5 W/m2
10:13 0.7 °C 0.1 °C 988.4 hPa Calm     96 % 0 mm 5 W/m2
10:14 0.7 °C 0.1 °C 988.4 hPa Calm     96 % 0 mm 7 W/m2
10:18 0.7 °C 0.1 °C 988.4 hPa Calm     96 % 0 mm 7 W/m2
10:19 0.7 °C 0.1 °C 988 hPa Calm     96 % 0 mm 7 W/m2
10:20 0.7 °C 0.1 °C 988 hPa Calm     96 % 0 mm 7 W/m2
10:24 0.6 °C 0.1 °C 988 hPa Calm     96 % 0 mm 9 W/m2
10:27 0.6 °C 0.1 °C 988 hPa Calm     96 % 0 mm 9 W/m2
10:29 0.6 °C 0.1 °C 988 hPa Calm     96 % 0 mm 9 W/m2
10:33 0.7 °C 0.1 °C 988 hPa Calm     96 % 0 mm 11 W/m2
10:38 0.7 °C 0.1 °C 988 hPa Calm     96 % 0 mm 11 W/m2
10:43 0.7 °C 0.1 °C 988 hPa Calm     96 % 0 mm 14 W/m2
10:48 0.7 °C 0.1 °C 988 hPa Calm     96 % 0 mm 12 W/m2
10:50 0.7 °C 0.1 °C 988 hPa Calm     96 % 0 mm 12 W/m2
10:54 0.7 °C 0.1 °C 988 hPa Calm     96 % 0 mm 12 W/m2
10:55 0.7 °C 0.1 °C 988 hPa Calm     96 % 0 mm 12 W/m2
11:01 0.8 °C 0.2 °C 988 hPa Calm     96 % 0 mm 14 W/m2
11:05 0.7 °C 0.1 °C 988 hPa Calm     96 % 0 mm 14 W/m2
11:09 0.7 °C 0.1 °C 988 hPa Calm     96 % 0 mm 16 W/m2
11:14 0.8 °C 0.2 °C 988 hPa Calm     96 % 0 mm 16 W/m2
11:19 0.8 °C 0.2 °C 988 hPa Calm     96 % 0 mm 18 W/m2
11:21 0.8 °C 0.2 °C 988 hPa Calm     96 % 0 mm 19 W/m2
11:26 0.7 °C 0.1 °C 988 hPa Calm     96 % 0 mm 18 W/m2
11:28 0.7 °C 0.1 °C 988 hPa Calm     96 % 0 mm 19 W/m2
11:33 0.8 °C 0.2 °C 988 hPa Calm     96 % 0 mm 25 W/m2
11:35 0.8 °C 0.2 °C 988 hPa Calm     96 % 0 mm 25 W/m2
11:39 0.8 °C 0.2 °C 988 hPa Calm     96 % 0 mm 26 W/m2
11:40 0.8 °C 0.2 °C 988 hPa Calm     96 % 0 mm 26 W/m2
11:45 0.8 °C 0.2 °C 988 hPa Calm     96 % 0 mm 26 W/m2
11:46 0.8 °C 0.2 °C 988 hPa Calm     96 % 0 mm 26 W/m2
11:51 0.8 °C 0.2 °C 988 hPa Calm     96 % 0 mm 28 W/m2
11:52 0.8 °C 0.2 °C 987.7 hPa Calm     96 % 0 mm 30 W/m2
11:57 0.9 °C 0.3 °C 988 hPa Calm     96 % 0 mm 30 W/m2
11:58 0.9 °C 0.3 °C 987.7 hPa Calm     96 % 0 mm 32 W/m2
12:00 0.9 °C 0.3 °C 988 hPa Calm     96 % 0 mm 32 W/m2
12:05 0.9 °C 0.3 °C 988 hPa Calm     96 % 0.25 mm 30 W/m2
12:09 0.9 °C 0.3 °C 988 hPa Calm     96 % 0.25 mm 30 W/m2
12:14 0.9 °C 0.3 °C 988 hPa Calm     96 % 0.25 mm 28 W/m2
12:15 0.9 °C 0.3 °C 988 hPa Calm     96 % 0.25 mm 28 W/m2
12:16 0.9 °C 0.3 °C 988 hPa Calm     96 % 0.25 mm 28 W/m2
12:21 0.9 °C 0.3 °C 987.7 hPa Calm     96 % 0.25 mm 30 W/m2
12:26 0.9 °C 0.3 °C 988 hPa Calm     96 % 0.25 mm 32 W/m2
12:31 0.9 °C 0.3 °C 988 hPa Calm     96 % 0.25 mm 33 W/m2
12:36 0.9 °C 0.3 °C 988 hPa Calm     96 % 0.25 mm 37 W/m2
12:37 0.9 °C 0.3 °C 988 hPa Calm     96 % 0.25 mm 39 W/m2
12:42 0.9 °C 0.3 °C 988 hPa Calm     96 % 0.51 mm 42 W/m2
12:44 0.9 °C 0.3 °C 988 hPa Calm     96 % 0.51 mm 42 W/m2
12:47 0.9 °C 0.3 °C 988 hPa Calm     96 % 0.51 mm 44 W/m2
12:49 0.9 °C 0.3 °C 988 hPa Calm     96 % 0.51 mm 46 W/m2
12:54 1 °C 0.4 °C 988 hPa WNW 4.8 km/h 11.3 km/h 96 % 0.51 mm 53 W/m2
12:55 1 °C 0.4 °C 988 hPa WNW 4.8 km/h 11.3 km/h 96 % 0.51 mm 53 W/m2
13:00 1.2 °C 0.6 °C 988 hPa WNW 11.3 km/h 16.1 km/h 96 % 0.51 mm 58 W/m2
13:04 1.6 °C 1.2 °C 988 hPa WNW 11.3 km/h 16.1 km/h 97 % 0.25 mm 63 W/m2
13:09 1.8 °C 1.4 °C 988 hPa WNW 11.3 km/h 16.1 km/h 97 % 0.51 mm 70 W/m2
13:10 1.8 °C 1.4 °C 988 hPa WNW 11.3 km/h 17.7 km/h 97 % 0.51 mm 72 W/m2
13:11 1.9 °C 1.5 °C 988 hPa WNW 11.3 km/h 24.1 km/h 97 % 0.51 mm 72 W/m2
13:16 2.2 °C 1.8 °C 988 hPa WNW 16.1 km/h 29 km/h 97 % 0.51 mm 86 W/m2
13:21 2.4 °C 2 °C 988 hPa WNW 19.3 km/h 30.6 km/h 97 % 0.51 mm 102 W/m2
13:22 2.5 °C 2.1 °C 988 hPa WNW 19.3 km/h 30.6 km/h 97 % 0.51 mm 102 W/m2
13:27 2.7 °C 2.3 °C 988 hPa West 16.1 km/h 25.7 km/h 97 % 0.51 mm 118 W/m2
13:28 2.8 °C 2.4 °C 988 hPa West 17.7 km/h 30.6 km/h 97 % 0.51 mm 123 W/m2
13:29 2.8 °C 2.4 °C 988 hPa West 17.7 km/h 32.2 km/h 97 % 0.51 mm 121 W/m2
13:34 2.9 °C 2.4 °C 988.4 hPa WNW 24.1 km/h 37 km/h 97 % 0.76 mm 95 W/m2
13:35 2.9 °C 2.3 °C 988.4 hPa WNW 24.1 km/h 37 km/h 96 % 0.76 mm 91 W/m2
13:37 3 °C 2.4 °C 988.4 hPa WNW 22.5 km/h 33.8 km/h 96 % 0.76 mm 95 W/m2
13:42 3.1 °C 2.5 °C 988.4 hPa West 22.5 km/h 33.8 km/h 96 % 0.51 mm 104 W/m2
13:47 3.1 °C 2.4 °C 988.4 hPa West 20.9 km/h 35.4 km/h 95 % 0.76 mm 121 W/m2
13:52 3.1 °C 2.4 °C 988.7 hPa WNW 25.7 km/h 35.4 km/h 95 % 1.02 mm 116 W/m2
13:54 3.2 °C 2.5 °C 988.7 hPa WNW 25.7 km/h 41.8 km/h 95 % 1.02 mm 162 W/m2
13:59 3.3 °C 2.4 °C 988.4 hPa West 17.7 km/h 29 km/h 94 % 1.27 mm 192 W/m2
14:01 3.3 °C 2.4 °C 988.4 hPa West 20.9 km/h 32.2 km/h 94 % 1.27 mm 197 W/m2
14:06 3.5 °C 2.6 °C 988.7 hPa WNW 19.3 km/h 30.6 km/h 94 % 1.27 mm 113 W/m2
14:09 3.6 °C 2.7 °C 988.7 hPa WNW 20.9 km/h 35.4 km/h 94 % 1.27 mm 163 W/m2
14:15 3.7 °C 2.7 °C 988.7 hPa WNW 22.5 km/h 38.6 km/h 93 % 1.52 mm 195 W/m2
14:20 3.8 °C 2.8 °C 988.7 hPa WNW 17.7 km/h 30.6 km/h 93 % 1.52 mm 107 W/m2
14:22 3.8 °C 2.8 °C 988.7 hPa WNW 19.3 km/h 30.6 km/h 93 % 1.52 mm 102 W/m2
14:27 3.8 °C 2.6 °C 988.7 hPa WNW 17.7 km/h 25.7 km/h 92 % 1.52 mm 83 W/m2
14:32 3.8 °C 2.6 °C 988.7 hPa West 17.7 km/h 25.7 km/h 92 % 1.52 mm 69 W/m2
14:34 3.7 °C 2.5 °C 989.1 hPa West 17.7 km/h 30.6 km/h 92 % 1.52 mm 97 W/m2
14:39 3.7 °C 2.5 °C 989.1 hPa West 22.5 km/h 33.8 km/h 92 % 1.52 mm 53 W/m2
14:44 3.7 °C 2.5 °C 989.1 hPa West 22.5 km/h 38.6 km/h 92 % 1.52 mm 65 W/m2
14:49 3.7 °C 2.5 °C 989.4 hPa West 19.3 km/h 37 km/h 92 % 1.27 mm 42 W/m2
14:50 3.7 °C 2.5 °C 989.4 hPa West 22.5 km/h 40.2 km/h 92 % 1.27 mm 42 W/m2
14:56 3.7 °C 2.5 °C 989.4 hPa West 22.5 km/h 37 km/h 92 % 1.27 mm 63 W/m2
15:02 3.6 °C 2.4 °C 989.4 hPa West 19.3 km/h 32.2 km/h 92 % 1.02 mm 30 W/m2
15:05 3.6 °C 2.4 °C 989.4 hPa West 24.1 km/h 38.6 km/h 92 % 1.02 mm 26 W/m2
15:07 3.6 °C 2.4 °C 989.4 hPa West 20.9 km/h 33.8 km/h 92 % 1.02 mm 25 W/m2
15:12 3.6 °C 2.4 °C 989.4 hPa West 17.7 km/h 30.6 km/h 92 % 1.02 mm 26 W/m2
15:13 3.6 °C 2.4 °C 989.4 hPa West 17.7 km/h 30.6 km/h 92 % 1.02 mm 28 W/m2
15:18 3.6 °C 2.4 °C 989.4 hPa West 19.3 km/h 32.2 km/h 92 % 0.76 mm 21 W/m2
15:19 3.6 °C 2.4 °C 989.4 hPa West 17.7 km/h 29 km/h 92 % 0.76 mm 21 W/m2
15:20 3.7 °C 2.5 °C 989.7 hPa West 17.7 km/h 29 km/h 92 % 0.76 mm 19 W/m2
15:24 3.7 °C 2.5 °C 989.7 hPa West 17.7 km/h 29 km/h 92 % 0.76 mm 19 W/m2
15:29 3.8 °C 2.6 °C 989.7 hPa West 17.7 km/h 25.7 km/h 92 % 0.51 mm 16 W/m2
15:34 3.9 °C 2.7 °C 990.1 hPa West 16.1 km/h 24.1 km/h 92 % 0.51 mm 14 W/m2
15:37 3.9 °C 2.7 °C 990.1 hPa West 20.9 km/h 33.8 km/h 92 % 0.51 mm 14 W/m2
15:40 3.9 °C 2.7 °C 990.1 hPa West 20.9 km/h 35.4 km/h 92 % 0.51 mm 16 W/m2
15:45 4 °C 2.8 °C 990.4 hPa West 19.3 km/h 30.6 km/h 92 % 0.51 mm 12 W/m2
15:46 4 °C 2.8 °C 990.4 hPa West 20.9 km/h 30.6 km/h 92 % 0.51 mm 11 W/m2
15:51 4 °C 2.8 °C 990.4 hPa West 16.1 km/h 25.7 km/h 92 % 0.51 mm 0 W/m2
15:53 4 °C 2.8 °C 990.4 hPa West 14.5 km/h 24.1 km/h 92 % 0.51 mm 0 W/m2
15:58 4 °C 2.8 °C 990.4 hPa West 12.9 km/h 20.9 km/h 92 % 0.51 mm 0 W/m2
15:59 4 °C 2.8 °C 990.4 hPa West 12.9 km/h 20.9 km/h 92 % 0.51 mm 0 W/m2
16:04 4 °C 2.8 °C 990.4 hPa West 16.1 km/h 25.7 km/h 92 % 0.51 mm 0 W/m2
16:05 4.1 °C 2.9 °C 990.4 hPa West 14.5 km/h 22.5 km/h 92 % 0.51 mm 0 W/m2
16:07 4.1 °C 2.9 °C 990.4 hPa West 14.5 km/h 22.5 km/h 92 % 0.51 mm 0 W/m2
16:12 4.1 °C 2.9 °C 990.4 hPa West 16.1 km/h 24.1 km/h 92 % 0.51 mm 0 W/m2
16:14 4.1 °C 2.9 °C 990.4 hPa West 14.5 km/h 20.9 km/h 92 % 0.51 mm 0 W/m2
16:18 4.1 °C 2.9 °C 990.4 hPa West 12.9 km/h 19.3 km/h 92 % 0.51 mm 0 W/m2
16:23 4.2 °C 3 °C 990.7 hPa West 14.5 km/h 20.9 km/h 92 % 0.51 mm 0 W/m2
16:24 4.2 °C 3 °C 990.7 hPa West 14.5 km/h 24.1 km/h 92 % 0.51 mm 0 W/m2
16:29 4.2 °C 3 °C 990.7 hPa West 14.5 km/h 22.5 km/h 92 % 0.51 mm 0 W/m2
16:32 4.3 °C 3.1 °C 990.7 hPa West 17.7 km/h 29 km/h 92 % 0.51 mm 0 W/m2
16:35 4.3 °C 3.1 °C 990.7 hPa West 22.5 km/h 35.4 km/h 92 % 0.51 mm 0 W/m2
16:40 4.4 °C 3.2 °C 990.7 hPa WNW 17.7 km/h 30.6 km/h 92 % 0.25 mm 0 W/m2
16:44 4.4 °C 3.2 °C 990.7 hPa West 22.5 km/h 33.8 km/h 92 % 0.25 mm 0 W/m2
16:46 4.5 °C 3.2 °C 991.1 hPa West 19.3 km/h 33.8 km/h 91 % 0.25 mm 0 W/m2
16:49 4.5 °C 3.2 °C 990.7 hPa WNW 20.9 km/h 37 km/h 91 % 0.25 mm 0 W/m2
16:51 4.5 °C 3.2 °C 990.7 hPa WNW 19.3 km/h 30.6 km/h 91 % 0.25 mm 0 W/m2
16:54 4.6 °C 3.3 °C 991.1 hPa West 16.1 km/h 22.5 km/h 91 % 0.25 mm 0 W/m2
16:59 4.6 °C 3.3 °C 991.1 hPa West 20.9 km/h 38.6 km/h 91 % 0.25 mm 0 W/m2
17:01 4.7 °C 3.3 °C 991.1 hPa West 22.5 km/h 33.8 km/h 91 % 0.25 mm 0 W/m2
17:06 4.8 °C 3.3 °C 991.1 hPa West 24.1 km/h 43.5 km/h 90 % 0 mm 0 W/m2
17:09 4.9 °C 3.4 °C 991.1 hPa West 22.5 km/h 37 km/h 90 % 0 mm 0 W/m2
17:14 5.1 °C 3.4 °C 991.4 hPa West 19.3 km/h 30.6 km/h 89 % 0 mm 0 W/m2
17:19 5.1 °C 3.3 °C 991.1 hPa West 16.1 km/h 30.6 km/h 88 % 0 mm 0 W/m2
17:24 5.2 °C 3.4 °C 991.1 hPa West 22.5 km/h 32.2 km/h 88 % 0 mm 0 W/m2
17:28 5.2 °C 3.2 °C 991.1 hPa West 24.1 km/h 37 km/h 87 % 0 mm 0 W/m2
17:33 5.3 °C 3.3 °C 991.4 hPa West 22.5 km/h 38.6 km/h 87 % 0 mm 0 W/m2
17:34 5.3 °C 3.2 °C 991.1 hPa West 19.3 km/h 33.8 km/h 86 % 0 mm 0 W/m2
17:39 5.2 °C 3.1 °C 991.4 hPa West 24.1 km/h 38.6 km/h 86 % 0 mm 0 W/m2
17:40 5.2 °C 3.1 °C 991.1 hPa West 22.5 km/h 35.4 km/h 86 % 0 mm 0 W/m2
17:45 5.3 °C 3.2 °C 991.4 hPa West 27.4 km/h 46.7 km/h 86 % 0 mm 0 W/m2
17:49 5.3 °C 3 °C 991.4 hPa West 20.9 km/h 33.8 km/h 85 % 0 mm 0 W/m2
17:52 5.3 °C 3 °C 991.1 hPa West 24.1 km/h 38.6 km/h 85 % 0 mm 0 W/m2
17:57 5.3 °C 3 °C 991.1 hPa West 25.7 km/h 46.7 km/h 85 % 0 mm 0 W/m2
18:02 5.3 °C 3 °C 991.1 hPa West 27.4 km/h 43.5 km/h 85 % 0 mm 0 W/m2
18:03 5.3 °C 3 °C 991.1 hPa West 30.6 km/h 43.5 km/h 85 % 0 mm 0 W/m2
18:04 5.4 °C 3.1 °C 991.1 hPa West 35.4 km/h 53.1 km/h 85 % 0 mm 0 W/m2
18:09 5.4 °C 2.9 °C 991.4 hPa West 29 km/h 43.5 km/h 84 % 0 mm 0 W/m2
18:14 5.4 °C 2.9 °C 991.1 hPa West 27.4 km/h 51.5 km/h 84 % 0 mm 0 W/m2
18:15 5.4 °C 2.9 °C 991.1 hPa West 25.7 km/h 49.9 km/h 84 % 0 mm 0 W/m2
18:20 5.4 °C 2.9 °C 991.4 hPa West 32.2 km/h 48.3 km/h 84 % 0 mm 0 W/m2
18:21 5.3 °C 2.8 °C 991.4 hPa West 33.8 km/h 48.3 km/h 84 % 0 mm 0 W/m2
18:26 5.3 °C 2.8 °C 991.4 hPa West 22.5 km/h 41.8 km/h 84 % 0 mm 0 W/m2
18:27 5.3 °C 2.8 °C 991.4 hPa West 22.5 km/h 41.8 km/h 84 % 0 mm 0 W/m2
18:30 5.3 °C 2.8 °C 991.4 hPa West 22.5 km/h 33.8 km/h 84 % 0 mm 0 W/m2
18:34 5.3 °C 2.8 °C 991.8 hPa West 20.9 km/h 33.8 km/h 84 % 0 mm 0 W/m2
18:39 5.3 °C 2.7 °C 992.1 hPa West 25.7 km/h 37 km/h 83 % 0 mm 0 W/m2
18:40 5.3 °C 2.7 °C 992.1 hPa West 22.5 km/h 35.4 km/h 83 % 0 mm 0 W/m2
18:41 5.3 °C 2.7 °C 992.1 hPa West 22.5 km/h 35.4 km/h 83 % 0 mm 0 W/m2
18:46 5.3 °C 2.7 °C 992.4 hPa West 25.7 km/h 38.6 km/h 83 % 0 mm 0 W/m2
18:51 5.3 °C 2.7 °C 992.4 hPa West 14.5 km/h 24.1 km/h 83 % 0 mm 0 W/m2
18:52 5.3 °C 2.7 °C 992.8 hPa West 12.9 km/h 24.1 km/h 83 % 0 mm 0 W/m2
18:57 5.3 °C 2.7 °C 993.1 hPa SW 12.9 km/h 24.1 km/h 83 % 0 mm 0 W/m2
18:58 5.3 °C 2.7 °C 993.1 hPa SW 16.1 km/h 35.4 km/h 83 % 0 mm 0 W/m2
19:00 5.3 °C 2.7 °C 993.1 hPa WSW 19.3 km/h 41.8 km/h 83 % 0 mm 0 W/m2
19:03 5.4 °C 2.6 °C 992.8 hPa WSW 16.1 km/h 25.7 km/h 82 % 0 mm 0 W/m2
19:08 5.3 °C 2.5 °C 992.8 hPa WSW 19.3 km/h 35.4 km/h 82 % 0 mm 0 W/m2
19:09 5.3 °C 2.5 °C 992.8 hPa WSW 19.3 km/h 35.4 km/h 82 % 0 mm 0 W/m2
19:12 5.4 °C 2.4 °C 993.1 hPa WSW 20.9 km/h 37 km/h 81 % 0 mm 0 W/m2
19:18 5.4 °C 2.4 °C 993.1 hPa WSW 19.3 km/h 35.4 km/h 81 % 0 mm 0 W/m2
19:21 5.4 °C 2.4 °C 993.1 hPa WSW 25.7 km/h 40.2 km/h 81 % 0 mm 0 W/m2
19:27 5.4 °C 2.4 °C 993.1 hPa West 24.1 km/h 40.2 km/h 81 % 0 mm 0 W/m2
19:32 5.4 °C 2.2 °C 993.1 hPa WSW 20.9 km/h 33.8 km/h 80 % 0 mm 0 W/m2
19:33 5.3 °C 2.1 °C 993.1 hPa WSW 17.7 km/h 33.8 km/h 80 % 0 mm 0 W/m2
19:36 5.3 °C 2.1 °C 993.1 hPa WSW 12.9 km/h 20.9 km/h 80 % 0 mm 0 W/m2
19:39 5.2 °C 2.1 °C 993.1 hPa SW 12.9 km/h 24.1 km/h 80 % 0 mm 0 W/m2
19:43 5.2 °C 2.2 °C 993.1 hPa SW 12.9 km/h 24.1 km/h 81 % 0 mm 0 W/m2
19:45 5.2 °C 2.1 °C 993.1 hPa SW 11.3 km/h 22.5 km/h 80 % 0 mm 0 W/m2
19:50 5.1 °C 2.1 °C 993.1 hPa WSW 12.9 km/h 22.5 km/h 81 % 0 mm 0 W/m2
19:51 5.1 °C 2.1 °C 993.1 hPa WSW 14.5 km/h 20.9 km/h 81 % 0 mm 0 W/m2
19:52 5.1 °C 2.1 °C 993.1 hPa WSW 14.5 km/h 20.9 km/h 81 % 0 mm 0 W/m2
19:56 5.1 °C 2.1 °C 993.1 hPa WSW 16.1 km/h 22.5 km/h 81 % 0 mm 0 W/m2
20:01 5.1 °C 1.9 °C 993.1 hPa WSW 22.5 km/h 37 km/h 80 % 0 mm 0 W/m2
20:02 5.2 °C 2.1 °C 993.1 hPa WSW 20.9 km/h 37 km/h 80 % 0 mm 0 W/m2
20:07 5.2 °C 2.1 °C 993.1 hPa WSW 22.5 km/h 38.6 km/h 80 % 0 mm 0 W/m2
20:10 5.2 °C 2.1 °C 993.1 hPa WSW 20.9 km/h 33.8 km/h 80 % 0 mm 0 W/m2
20:13 5.2 °C 2.1 °C 992.8 hPa West 22.5 km/h 40.2 km/h 80 % 0 mm 0 W/m2
20:18 5.1 °C 1.9 °C 993.1 hPa West 24.1 km/h 40.2 km/h 80 % 0 mm 0 W/m2
20:23 5.1 °C 1.9 °C 993.1 hPa West 25.7 km/h 38.6 km/h 80 % 0 mm 0 W/m2
20:24 5.1 °C 1.9 °C 993.1 hPa West 25.7 km/h 38.6 km/h 80 % 0 mm 0 W/m2
20:29 5.1 °C 1.9 °C 993.1 hPa West 19.3 km/h 30.6 km/h 80 % 0 mm 0 W/m2
20:36 5.1 °C 1.9 °C 993.1 hPa West 20.9 km/h 35.4 km/h 80 % 0 mm 0 W/m2
20:41 5.1 °C 1.9 °C 993.1 hPa WSW 19.3 km/h 33.8 km/h 80 % 0 mm 0 W/m2
20:42 5.1 °C 1.9 °C 993.5 hPa West 19.3 km/h 33.8 km/h 80 % 0 mm 0 W/m2
20:45 5.1 °C 1.9 °C 993.5 hPa WSW 16.1 km/h 22.5 km/h 80 % 0 mm 0 W/m2
20:48 5 °C 1.8 °C 993.5 hPa West 19.3 km/h 33.8 km/h 80 % 0 mm 0 W/m2
20:53 4.9 °C 1.9 °C 993.5 hPa West 14.5 km/h 24.1 km/h 81 % 0 mm 0 W/m2
20:58 4.9 °C 1.9 °C 993.5 hPa WSW 14.5 km/h 22.5 km/h 81 % 0 mm 0 W/m2
21:01 4.8 °C 1.8 °C 993.8 hPa WSW 14.5 km/h 29 km/h 81 % 0 mm 0 W/m2
21:06 4.8 °C 1.8 °C 993.8 hPa WSW 16.1 km/h 24.1 km/h 81 % 0 mm 0 W/m2
21:08 4.8 °C 1.8 °C 993.8 hPa SW 17.7 km/h 24.1 km/h 81 % 0 mm 0 W/m2
21:13 4.8 °C 1.8 °C 993.8 hPa WSW 16.1 km/h 25.7 km/h 81 % 0 mm 0 W/m2
21:14 4.8 °C 1.8 °C 993.8 hPa WSW 17.7 km/h 29 km/h 81 % 0 mm 0 W/m2
21:19 4.8 °C 1.8 °C 993.8 hPa WSW 22.5 km/h 33.8 km/h 81 % 0 mm 0 W/m2
21:21 4.8 °C 1.8 °C 993.8 hPa WSW 19.3 km/h 32.2 km/h 81 % 0 mm 0 W/m2
21:28 4.8 °C 1.8 °C 993.8 hPa WSW 16.1 km/h 25.7 km/h 81 % 0 mm 0 W/m2
21:33 4.8 °C 1.7 °C 993.8 hPa WSW 17.7 km/h 29 km/h 80 % 0 mm 0 W/m2
21:38 4.8 °C 1.7 °C 993.8 hPa WSW 14.5 km/h 22.5 km/h 80 % 0 mm 0 W/m2
21:39 4.8 °C 1.7 °C 993.8 hPa WSW 14.5 km/h 22.5 km/h 80 % 0 mm 0 W/m2
21:44 4.7 °C 1.6 °C 993.5 hPa WSW 16.1 km/h 20.9 km/h 80 % 0 mm 0 W/m2
21:45 4.7 °C 1.6 °C 993.5 hPa West 16.1 km/h 24.1 km/h 80 % 0 mm 0 W/m2
21:47 4.7 °C 1.7 °C 993.5 hPa WSW 17.7 km/h 30.6 km/h 81 % 0 mm 0 W/m2
21:52 4.6 °C 1.6 °C 993.5 hPa West 19.3 km/h 30.6 km/h 81 % 0 mm 0 W/m2
21:55 4.7 °C 1.7 °C 993.5 hPa West 16.1 km/h 24.1 km/h 81 % 0 mm 0 W/m2
22:01 4.7 °C 1.7 °C 993.5 hPa WSW 19.3 km/h 25.7 km/h 81 % 0 mm 0 W/m2
22:03 4.7 °C 1.7 °C 993.1 hPa WSW 19.3 km/h 25.7 km/h 81 % 0 mm 0 W/m2
22:08 4.8 °C 1.8 °C 993.5 hPa WSW 14.5 km/h 24.1 km/h 81 % 0 mm 0 W/m2
22:10 4.8 °C 1.7 °C 993.5 hPa WSW 17.7 km/h 24.1 km/h 80 % 0 mm 0 W/m2
22:15 4.9 °C 1.7 °C 993.5 hPa SW 12.9 km/h 24.1 km/h 80 % 0 mm 0 W/m2
22:19 4.8 °C 1.7 °C 993.8 hPa SW 12.9 km/h 20.9 km/h 80 % 0 mm 0 W/m2
22:24 4.8 °C 1.8 °C 993.8 hPa SW 12.9 km/h 20.9 km/h 81 % 0 mm 0 W/m2
22:26 4.8 °C 1.8 °C 993.8 hPa SW 14.5 km/h 22.5 km/h 81 % 0 mm 0 W/m2
22:35 4.8 °C 1.7 °C 993.5 hPa WSW 11.3 km/h 16.1 km/h 80 % 0 mm 0 W/m2
22:37 4.8 °C 1.7 °C 993.5 hPa WSW 14.5 km/h 22.5 km/h 80 % 0 mm 0 W/m2
22:38 4.8 °C 1.7 °C 993.5 hPa WSW 14.5 km/h 22.5 km/h 80 % 0 mm 0 W/m2
22:42 4.7 °C 1.7 °C 993.1 hPa WSW 16.1 km/h 25.7 km/h 81 % 0 mm 0 W/m2
22:43 4.7 °C 1.6 °C 993.1 hPa WSW 17.7 km/h 29 km/h 80 % 0 mm 0 W/m2
22:48 4.7 °C 1.7 °C 993.1 hPa WSW 14.5 km/h 24.1 km/h 81 % 0 mm 0 W/m2
22:49 4.7 °C 1.7 °C 993.1 hPa WSW 14.5 km/h 25.7 km/h 81 % 0 mm 0 W/m2
22:50 4.7 °C 1.7 °C 993.5 hPa WSW 17.7 km/h 30.6 km/h 81 % 0 mm 0 W/m2
22:55 4.8 °C 1.7 °C 993.5 hPa WSW 19.3 km/h 25.7 km/h 80 % 0 mm 0 W/m2
22:56 4.8 °C 1.7 °C 993.5 hPa WSW 17.7 km/h 25.7 km/h 80 % 0 mm 0 W/m2
23:01 4.8 °C 1.8 °C 993.5 hPa SW 16.1 km/h 29 km/h 81 % 0 mm 0 W/m2
23:02 4.8 °C 1.8 °C 993.5 hPa SW 16.1 km/h 29 km/h 81 % 0 mm 0 W/m2
23:07 4.8 °C 1.7 °C 993.8 hPa SW 11.3 km/h 16.1 km/h 80 % 0 mm 0 W/m2
23:12 4.8 °C 1.8 °C 993.8 hPa SSW 11.3 km/h 22.5 km/h 81 % 0 mm 0 W/m2
23:13 4.8 °C 1.8 °C 993.5 hPa SSW 11.3 km/h 22.5 km/h 81 % 0 mm 0 W/m2
23:18 4.8 °C 1.8 °C 993.5 hPa SSW 14.5 km/h 25.7 km/h 81 % 0 mm 0 W/m2
23:19 4.8 °C 1.7 °C 993.5 hPa SSW 11.3 km/h 17.7 km/h 80 % 0 mm 0 W/m2
23:20 4.8 °C 1.7 °C 993.5 hPa SSW 9.7 km/h 17.7 km/h 80 % 0 mm 0 W/m2
23:23 4.8 °C 1.7 °C 993.1 hPa South 8 km/h 12.9 km/h 80 % 0 mm 0 W/m2
23:25 4.8 °C 1.7 °C 993.5 hPa South 8 km/h 14.5 km/h 80 % 0 mm 0 W/m2
23:29 4.8 °C 1.7 °C 993.1 hPa SSE 8 km/h 14.5 km/h 80 % 0 mm 0 W/m2
23:34 4.8 °C 1.8 °C 992.8 hPa South 6.4 km/h 17.7 km/h 81 % 0 mm 0 W/m2
23:39 4.7 °C 1.7 °C 992.4 hPa SSW 9.7 km/h 19.3 km/h 81 % 0 mm 0 W/m2
23:40 4.7 °C 1.7 °C 992.4 hPa SSW 12.9 km/h 19.3 km/h 81 % 0 mm 0 W/m2
23:41 4.7 °C 1.7 °C 992.4 hPa SSW 12.9 km/h 19.3 km/h 81 % 0 mm 0 W/m2
23:46 4.7 °C 1.7 °C 992.1 hPa SSW 14.5 km/h 22.5 km/h 81 % 0 mm 0 W/m2
23:47 4.7 °C 1.7 °C 992.1 hPa SSW 14.5 km/h 24.1 km/h 81 % 0 mm 0 W/m2
23:50 4.8 °C 1.8 °C 992.1 hPa SSW 14.5 km/h 24.1 km/h 81 % 0 mm 0 W/m2
23:53 4.8 °C 1.8 °C 991.8 hPa South 12.9 km/h 20.9 km/h 81 % 0 mm 0 W/m2
23:56 4.7 °C 1.7 °C 991.8 hPa South 11.3 km/h 19.3 km/h 81 % 0 mm 0 W/m2
23:59 4.6 °C 1.6 °C 992.1 hPa SSE 11.3 km/h 19.3 km/h 81 % 0 mm 0 W/m2
Delerius-Weather
Compliments of Weather Underground - 3 mb

Data updates at regular intervals.